Unalaska, AK (99685)

1:51 AM AKDT on August 04, 2015 (GMT -0800)
Dutch Harbor | | Change Station
CLOSE
Current Station
Airport
Location: Dutch Harbor,
Elevation: 13 ft
Nearby Weather Stations

Elev 13 ft 53.90 °N, 166.54 °W | Updated 55 minutes ago

Overcast
Overcast
52 °F
Feels Like 52 °F
N
15
Wind Variable Wind from NNW

Today
High -- | Low -- °F
--% Chance of Precip.
Yesterday
High -- | Low -- °F
Precip. -- in
7:26 AM 10:58 PM
Waning Gibbous, 79% visible
Pressure 30.04 in
Visibility 10.0 miles
Clouds Mostly Cloudy 600 ft
Overcast 1200 ft
Dew Point 49 °F
Humidity 89%
Rainfall 0.00 in
Snow Depth Not available.
UV 0 out of 12
Pollen Not available.
Air Quality Not available.
Flu Activity Not available.
METAR PADU 040856Z AUTO 34013KT 10SM BKN006 OVC012 11/09 A3003 RMK AO2 CIG 004V008 SLP173 60000 T01110094 401280100 51007

More Conditions Fewer Conditions

Pressure 30.04 in
Visibility 10.0 miles
Clouds Mostly Cloudy 600 ft
Overcast 1200 ft
Dew Point 49 °F
Humidity 89%
Rainfall 0.00 in
Snow Depth Not available.
UV 0 out of 12
Pollen Not available.
Air Quality Not available.
Flu Activity Not available.
METAR PADU 040856Z AUTO 34013KT 10SM BKN006 OVC012 11/09 A3003 RMK AO2 CIG 004V008 SLP173 60000 T01110094 401280100 51007

More Conditions Fewer Conditions

10-Day Weather Forecast

×

Almanac

Astronomy

Aug. 04, 2015 Rise Set
Actual Time
Civil Twilight
Nautical Twilight
Astronomical Twilight
Moon
Length of Visible Light
Length of Day
Tomorrow will be .
, % of the Moon is Illuminated

Today's Extremes

State Highs State Lows

Community

WunderPhotos

Upload Photos

1,843,880 photos uploaded!

WunderBlogs® & News

Nearby

Air Quality

  Air Quality AQ Index Pollutant
Not available.

Snow Depth

Station Depth Elevation

Earthquake Activity

City Distance Mag. Time & Date
Minimum magnitude displayed is 2.5.

Coastal Water Temperatures

Place Temperature

Stations

Nearby Weather Stations

Station Location Temp. Windchill Dew Point Humidity Wind Precip. Elev Updated Type